KAOH/AOH METAR and TAF weather

Enter ICAO airport designator
Station Type Date Time Source
KAOH METAR 2020/09/21 23:53 UTC NOAA

KAOH 212353Z AUTO 11005KT 10SM CLR 13/07 A3033 RMK AO2 SLP272 T01280067 10222 20128 56007


Station Type Date Time Source
KAOH Decoded METAR 2020/09/21 23:53 UTC NOAA

LIMA ALLEN COUNTY AIRPORT, OH, United States (KAOH) 40-42N 84-01W 296M
Sep 21, 2020 - 07:53 PM EDT / 2020.09.21 2353 UTC
Wind: from the ESE (110 degrees) at 6 MPH (5 KT):0
Visibility: 10 mile(s):0
Sky conditions: clear
Temperature: 55.0 F (12.8 C)
Dew Point: 44.1 F (6.7 C)
Relative Humidity: 66%
Pressure (altimeter): 30.33 in. Hg (1027 hPa)
Pressure tendency: 0.02 inches (0.7 hPa) lower than three hours ago
ob: KAOH 212353Z AUTO 11005KT 10SM CLR 13/07 A3033 RMK AO2 SLP272 T01280067 10222 20128 56007
cycle: 0

Station Type Date Time Source
KAOH TAF UTC NOAA

Error!

Example: see airport list